sensor_id;sensor_type;location;lat;lon;timestamp;pressure;altitude;pressure_sealevel;temperature;humidity
76990;BME280;65924;47.250;11.332;2023-05-29T00:06:22;94892.16;;;16.19;64.39
76990;BME280;65924;47.250;11.332;2023-05-29T00:16:23;94895.14;;;15.92;63.13
76990;BME280;65924;47.250;11.332;2023-05-29T00:26:24;94889.53;;;15.60;63.74
76990;BME280;65924;47.250;11.332;2023-05-29T00:36:26;94888.58;;;15.50;66.33
76990;BME280;65924;47.250;11.332;2023-05-29T00:46:30;94899.30;;;15.32;65.25
76990;BME280;65924;47.250;11.332;2023-05-29T00:56:32;94893.33;;;15.17;64.44
76990;BME280;65924;47.250;11.332;2023-05-29T01:06:33;94891.45;;;15.08;65.68
76990;BME280;65924;47.250;11.332;2023-05-29T01:16:51;94895.04;;;15.21;66.61
76990;BME280;65924;47.250;11.332;2023-05-29T01:27:08;94903.64;;;15.08;64.61
76990;BME280;65924;47.250;11.332;2023-05-29T01:37:10;94902.11;;;15.03;66.55
76990;BME280;65924;47.250;11.332;2023-05-29T01:47:11;94902.71;;;14.94;66.23
76990;BME280;65924;47.250;11.332;2023-05-29T01:57:13;94907.27;;;14.88;65.58
76990;BME280;65924;47.250;11.332;2023-05-29T02:07:13;94903.63;;;14.89;66.27
76990;BME280;65924;47.250;11.332;2023-05-29T02:17:15;94898.15;;;14.97;65.00
76990;BME280;65924;47.250;11.332;2023-05-29T02:27:17;94900.17;;;15.07;67.38
76990;BME280;65924;47.250;11.332;2023-05-29T02:37:17;94903.35;;;15.19;67.52
76990;BME280;65924;47.250;11.332;2023-05-29T02:47:18;94899.58;;;15.23;67.46
76990;BME280;65924;47.250;11.332;2023-05-29T02:57:19;94899.84;;;15.02;65.46
76990;BME280;65924;47.250;11.332;2023-05-29T03:07:20;94904.08;;;14.61;66.59
76990;BME280;65924;47.250;11.332;2023-05-29T03:17:21;94904.45;;;14.65;67.51
76990;BME280;65924;47.250;11.332;2023-05-29T03:27:22;94907.14;;;14.52;66.36
76990;BME280;65924;47.250;11.332;2023-05-29T03:37:31;94906.71;;;14.62;67.31
76990;BME280;65924;47.250;11.332;2023-05-29T03:47:35;94914.55;;;14.61;67.94
76990;BME280;65924;47.250;11.332;2023-05-29T03:57:36;94914.84;;;14.66;68.34
76990;BME280;65924;47.250;11.332;2023-05-29T04:07:37;94919.79;;;14.81;66.71
76990;BME280;65924;47.250;11.332;2023-05-29T04:17:39;94920.15;;;15.05;66.82
76990;BME280;65924;47.250;11.332;2023-05-29T04:27:41;94924.94;;;15.01;66.74
76990;BME280;65924;47.250;11.332;2023-05-29T04:37:43;94935.45;;;14.98;66.56
76990;BME280;65924;47.250;11.332;2023-05-29T04:47:44;94945.91;;;14.95;67.80
76990;BME280;65924;47.250;11.332;2023-05-29T04:57:46;94950.59;;;14.92;68.49
76990;BME280;65924;47.250;11.332;2023-05-29T05:07:47;94950.59;;;15.01;68.63
76990;BME280;65924;47.250;11.332;2023-05-29T05:17:48;94952.52;;;15.03;68.70
76990;BME280;65924;47.250;11.332;2023-05-29T05:27:51;94956.66;;;14.94;69.45
76990;BME280;65924;47.250;11.332;2023-05-29T05:37:53;94966.69;;;14.72;69.98
76990;BME280;65924;47.250;11.332;2023-05-29T05:47:56;94957.90;;;14.82;70.44
76990;BME280;65924;47.250;11.332;2023-05-29T05:57:57;94959.60;;;15.02;69.02
76990;BME280;65924;47.250;11.332;2023-05-29T06:07:58;94961.43;;;15.27;69.18
76990;BME280;65924;47.250;11.332;2023-05-29T06:17:59;94957.97;;;15.33;68.94
76990;BME280;65924;47.250;11.332;2023-05-29T06:28:02;94948.45;;;15.26;69.12
76990;BME280;65924;47.250;11.332;2023-05-29T06:38:06;94946.80;;;15.19;68.91
76990;BME280;65924;47.250;11.332;2023-05-29T06:48:07;94944.47;;;15.29;68.05
76990;BME280;65924;47.250;11.332;2023-05-29T06:58:07;94945.33;;;15.54;68.58
76990;BME280;65924;47.250;11.332;2023-05-29T07:08:08;94946.06;;;15.88;66.65
76990;BME280;65924;47.250;11.332;2023-05-29T07:18:10;94939.05;;;16.23;66.52
76990;BME280;65924;47.250;11.332;2023-05-29T07:28:11;94936.75;;;16.56;65.63
76990;BME280;65924;47.250;11.332;2023-05-29T07:38:12;94928.91;;;16.83;63.46
76990;BME280;65924;47.250;11.332;2023-05-29T07:48:14;94922.55;;;17.03;62.95
76990;BME280;65924;47.250;11.332;2023-05-29T07:58:15;94913.68;;;17.34;62.60
76990;BME280;65924;47.250;11.332;2023-05-29T08:08:17;94907.09;;;17.75;62.50
76990;BME280;65924;47.250;11.332;2023-05-29T08:18:18;94896.41;;;18.04;61.69
76990;BME280;65924;47.250;11.332;2023-05-29T08:28:18;94885.66;;;18.27;59.97
76990;BME280;65924;47.250;11.332;2023-05-29T08:38:19;94876.79;;;18.61;59.48
76990;BME280;65924;47.250;11.332;2023-05-29T08:48:25;94866.31;;;19.07;58.77
76990;BME280;65924;47.250;11.332;2023-05-29T08:58:27;94857.90;;;19.43;56.82
76990;BME280;65924;47.250;11.332;2023-05-29T09:08:27;94844.70;;;19.74;55.57
76990;BME280;65924;47.250;11.332;2023-05-29T09:18:32;94836.11;;;20.09;55.86
76990;BME280;65924;47.250;11.332;2023-05-29T09:28:32;94829.95;;;20.44;54.48
76990;BME280;65924;47.250;11.332;2023-05-29T09:38:33;94822.32;;;20.69;53.95
76990;BME280;65924;47.250;11.332;2023-05-29T09:48:34;94816.15;;;20.94;53.82
76990;BME280;65924;47.250;11.332;2023-05-29T09:58:36;94815.16;;;21.32;53.10
76990;BME280;65924;47.250;11.332;2023-05-29T10:08:45;94813.11;;;21.83;51.67
76990;BME280;65924;47.250;11.332;2023-05-29T10:18:53;94798.41;;;22.18;51.86
76990;BME280;65924;47.250;11.332;2023-05-29T10:29:08;94785.11;;;22.44;64.52
76990;BME280;65924;47.250;11.332;2023-05-29T10:39:10;94780.54;;;22.70;60.60
76990;BME280;65924;47.250;11.332;2023-05-29T10:49:18;94769.67;;;22.91;56.51
76990;BME280;65924;47.250;11.332;2023-05-29T10:59:18;94756.13;;;23.06;54.75
76990;BME280;65924;47.250;11.332;2023-05-29T11:09:49;94750.22;;;23.22;52.36
76990;BME280;65924;47.250;11.332;2023-05-29T11:19:52;94741.94;;;23.44;51.95
76990;BME280;65924;47.250;11.332;2023-05-29T11:29:56;94732.16;;;23.86;49.77
76990;BME280;65924;47.250;11.332;2023-05-29T11:39:58;94724.29;;;24.26;47.74
76990;BME280;65924;47.250;11.332;2023-05-29T11:49:59;94712.20;;;24.51;47.03
76990;BME280;65924;47.250;11.332;2023-05-29T11:59:59;94704.28;;;24.75;46.70
76990;BME280;65924;47.250;11.332;2023-05-29T12:10:14;94694.92;;;25.06;46.84
76990;BME280;65924;47.250;11.332;2023-05-29T12:20:16;94685.34;;;25.33;44.90
76990;BME280;65924;47.250;11.332;2023-05-29T12:50:27;94666.35;;;25.85;41.12
76990;BME280;65924;47.250;11.332;2023-05-29T13:00:28;94668.73;;;25.99;41.57
76990;BME280;65924;47.250;11.332;2023-05-29T13:10:28;94657.45;;;26.11;39.85
76990;BME280;65924;47.250;11.332;2023-05-29T13:20:29;94642.25;;;26.17;42.03
76990;BME280;65924;47.250;11.332;2023-05-29T13:30:32;94642.55;;;26.28;40.89
76990;BME280;65924;47.250;11.332;2023-05-29T13:40:32;94635.23;;;26.38;38.60
76990;BME280;65924;47.250;11.332;2023-05-29T13:50:33;94632.86;;;26.49;41.19
76990;BME280;65924;47.250;11.332;2023-05-29T14:00:34;94624.38;;;26.51;40.44
76990;BME280;65924;47.250;11.332;2023-05-29T14:10:35;94619.90;;;26.51;41.50
76990;BME280;65924;47.250;11.332;2023-05-29T14:20:35;94618.79;;;26.51;41.78
76990;BME280;65924;47.250;11.332;2023-05-29T14:30:37;94610.42;;;26.47;39.76
76990;BME280;65924;47.250;11.332;2023-05-29T14:40:37;94614.82;;;26.41;40.56
76990;BME280;65924;47.250;11.332;2023-05-29T14:50:39;94630.02;;;26.38;40.68
76990;BME280;65924;47.250;11.332;2023-05-29T15:00:39;94637.83;;;26.24;40.18
76990;BME280;65924;47.250;11.332;2023-05-29T15:10:40;94640.15;;;25.86;38.67
76990;BME280;65924;47.250;11.332;2023-05-29T15:20:41;94644.73;;;25.51;40.67
76990;BME280;65924;47.250;11.332;2023-05-29T15:30:41;94649.27;;;25.24;43.46
76990;BME280;65924;47.250;11.332;2023-05-29T15:40:42;94654.16;;;24.98;43.20
76990;BME280;65924;47.250;11.332;2023-05-29T15:50:43;94657.42;;;24.75;44.59
76990;BME280;65924;47.250;11.332;2023-05-29T16:00:43;94659.42;;;24.50;42.10
76990;BME280;65924;47.250;11.332;2023-05-29T16:10:44;94661.92;;;24.27;44.00
76990;BME280;65924;47.250;11.332;2023-05-29T16:20:45;94674.86;;;24.09;43.14
76990;BME280;65924;47.250;11.332;2023-05-29T16:30:45;94682.23;;;23.87;40.49
76990;BME280;65924;47.250;11.332;2023-05-29T16:40:46;94689.45;;;23.76;43.67
76990;BME280;65924;47.250;11.332;2023-05-29T16:50:47;94699.42;;;23.66;44.10
76990;BME280;65924;47.250;11.332;2023-05-29T17:00:47;94709.39;;;23.59;45.68
76990;BME280;65924;47.250;11.332;2023-05-29T17:10:48;94714.60;;;23.57;42.03
76990;BME280;65924;47.250;11.332;2023-05-29T17:20:49;94724.70;;;23.52;42.88
76990;BME280;65924;47.250;11.332;2023-05-29T17:30:49;94730.29;;;23.41;44.50
76990;BME280;65924;47.250;11.332;2023-05-29T17:40:50;94737.73;;;23.30;43.92
76990;BME280;65924;47.250;11.332;2023-05-29T17:50:51;94738.23;;;23.22;43.34
76990;BME280;65924;47.250;11.332;2023-05-29T18:00:52;94739.30;;;23.05;42.77
76990;BME280;65924;47.250;11.332;2023-05-29T18:10:53;94751.87;;;22.90;44.31
76990;BME280;65924;47.250;11.332;2023-05-29T18:20:54;94772.46;;;22.75;42.69
76990;BME280;65924;47.250;11.332;2023-05-29T18:30:54;94777.08;;;22.55;43.81
76990;BME280;65924;47.250;11.332;2023-05-29T18:40:55;94789.13;;;22.41;44.11
76990;BME280;65924;47.250;11.332;2023-05-29T18:50:56;94796.52;;;22.36;44.61
76990;BME280;65924;47.250;11.332;2023-05-29T19:01:00;94803.90;;;22.24;42.92
76990;BME280;65924;47.250;11.332;2023-05-29T19:11:01;94824.33;;;21.96;45.31
76990;BME280;65924;47.250;11.332;2023-05-29T19:21:02;94836.69;;;21.73;45.42
76990;BME280;65924;47.250;11.332;2023-05-29T19:31:03;94847.71;;;21.46;46.09
76990;BME280;65924;47.250;11.332;2023-05-29T19:41:04;94866.61;;;21.32;47.47
76990;BME280;65924;47.250;11.332;2023-05-29T19:51:05;94875.20;;;21.17;48.31
76990;BME280;65924;47.250;11.332;2023-05-29T20:01:06;94900.60;;;21.06;49.34
76990;BME280;65924;47.250;11.332;2023-05-29T20:11:07;94909.48;;;20.65;45.20
76990;BME280;65924;47.250;11.332;2023-05-29T20:21:07;94916.31;;;20.28;45.47
76990;BME280;65924;47.250;11.332;2023-05-29T20:31:09;94927.48;;;20.09;46.62
76990;BME280;65924;47.250;11.332;2023-05-29T20:41:10;94934.84;;;19.87;46.29
76990;BME280;65924;47.250;11.332;2023-05-29T20:51:12;94944.58;;;19.63;46.39
76990;BME280;65924;47.250;11.332;2023-05-29T21:01:13;94958.30;;;19.43;49.38
76990;BME280;65924;47.250;11.332;2023-05-29T21:11:15;94964.31;;;19.32;50.71
76990;BME280;65924;47.250;11.332;2023-05-29T21:21:16;94966.29;;;19.01;51.05
76990;BME280;65924;47.250;11.332;2023-05-29T21:31:19;94974.03;;;18.71;50.70
76990;BME280;65924;47.250;11.332;2023-05-29T21:41:20;94970.54;;;18.57;51.33
76990;BME280;65924;47.250;11.332;2023-05-29T21:51:23;94977.21;;;18.42;51.43
76990;BME280;65924;47.250;11.332;2023-05-29T22:01:24;94977.98;;;18.34;50.33
76990;BME280;65924;47.250;11.332;2023-05-29T22:11:27;94991.65;;;18.27;51.55
76990;BME280;65924;47.250;11.332;2023-05-29T22:21:27;94994.35;;;18.16;50.55
76990;BME280;65924;47.250;11.332;2023-05-29T22:31:28;94986.17;;;18.06;53.07
76990;BME280;65924;47.250;11.332;2023-05-29T22:41:29;94988.26;;;18.15;55.23
76990;BME280;65924;47.250;11.332;2023-05-29T22:51:29;94990.64;;;18.23;56.32
76990;BME280;65924;47.250;11.332;2023-05-29T23:01:32;94991.70;;;18.12;54.65
76990;BME280;65924;47.250;11.332;2023-05-29T23:11:33;94992.48;;;17.87;54.12
76990;BME280;65924;47.250;11.332;2023-05-29T23:21:34;94989.48;;;17.73;54.65
76990;BME280;65924;47.250;11.332;2023-05-29T23:31:34;94990.44;;;17.70;57.21
76990;BME280;65924;47.250;11.332;2023-05-29T23:41:41;94989.48;;;17.63;56.79
76990;BME280;65924;47.250;11.332;2023-05-29T23:51:42;94987.27;;;17.49;56.68
